Time;durP1;ratioP1;P1;durP2;ratioP2;P2;SDS_P1;SDS_P2;PMS_P1;PMS_P2;Temp;Humidity;BMP_temperature;BMP_pressure;BME280_temperature;BME280_humidity;BME280_pressure;Samples;Min_cycle;Max_cycle;Signal;HPM_P1;HPM_P2
2023/10/19 00:00:44;;;;;;;22.65;13.30;;;;;;;9.39;100.00;92568.72;5069265;28;20367;-58
2023/10/19 00:03:12;;;;;;;21.90;12.82;;;;;;;9.45;100.00;92560.72;5069485;28;20037;-61
2023/10/19 00:05:39;;;;;;;20.30;12.50;;;;;;;9.45;100.00;92560.72;5069966;28;20040;-59
2023/10/19 00:10:42;;;;;;;18.95;11.90;;;;;;;9.50;100.00;92541.00;5069314;28;20036;-59
2023/10/19 00:13:11;;;;;;;19.50;11.63;;;;;;;9.46;100.00;92541.09;5069805;28;20043;-62
2023/10/19 00:15:40;;;;;;;18.60;10.65;;;;;;;9.46;100.00;92537.59;5062805;28;20045;-60
2023/10/19 00:18:20;;;;;;;18.33;11.52;;;;;;;9.50;100.00;92543.72;5050800;28;20071;-59
2023/10/19 00:20:51;;;;;;;23.67;14.33;;;;;;;9.20;100.00;92540.38;5062422;28;20577;-59
2023/10/19 00:23:32;;;;;;;25.00;14.43;;;;;;;9.01;100.00;92544.88;5069944;28;20079;-60
2023/10/19 00:26:05;;;;;;;32.08;16.80;;;;;;;8.77;100.00;92533.50;5070041;28;20053;-58
2023/10/19 00:28:35;;;;;;;27.17;15.27;;;;;;;8.97;100.00;92542.28;5067646;28;20045;-58
2023/10/19 00:31:08;;;;;;;25.65;14.30;;;;;;;8.99;100.00;92539.09;5069927;28;20048;-58
2023/10/19 00:33:38;;;;;;;24.70;14.33;;;;;;;9.19;100.00;92528.69;5069792;28;20048;-60
2023/10/19 00:36:07;;;;;;;25.20;13.73;;;;;;;9.29;100.00;92521.31;5069712;28;20037;-58
2023/10/19 00:43:36;;;;;;;22.67;13.13;;;;;;;9.32;100.00;92512.22;5069764;28;20469;-58
2023/10/19 00:46:09;;;;;;;23.03;13.47;;;;;;;9.28;100.00;92522.53;5069871;28;20056;-60
2023/10/19 00:48:37;;;;;;;20.95;12.75;;;;;;;9.30;100.00;92519.34;5069642;28;20053;-58
2023/10/19 00:51:08;;;;;;;21.45;12.88;;;;;;;9.36;100.00;92512.88;5069739;28;20044;-60
2023/10/19 00:53:39;;;;;;;20.95;11.77;;;;;;;9.40;100.00;92502.56;5069232;28;20075;-60
2023/10/19 00:56:09;;;;;;;19.65;12.13;;;;;;;9.48;100.00;92492.13;5069496;28;20630;-61
2023/10/19 00:58:41;;;;;;;21.20;12.40;;;;;;;9.38;100.00;92487.78;5069525;28;20121;-59
2023/10/19 01:01:08;;;;;;;20.50;12.20;;;;;;;9.43;100.00;92484.47;5069458;28;20048;-58
2023/10/19 01:03:36;;;;;;;20.92;12.50;;;;;;;9.48;100.00;92480.44;5069124;28;20493;-59
2023/10/19 01:06:12;;;;;;;27.73;15.88;;;;;;;9.51;100.00;92472.06;5069601;28;20651;-58
2023/10/19 01:08:42;;;;;;;21.75;12.40;;;;;;;9.53;100.00;92472.38;5069133;28;20217;-59
2023/10/19 01:11:11;;;;;;;22.10;12.57;;;;;;;9.50;100.00;92478.00;5068989;28;20036;-58
2023/10/19 01:13:38;;;;;;;23.45;13.60;;;;;;;9.08;100.00;92480.97;5069094;28;20481;-58
2023/10/19 01:16:05;;;;;;;24.73;13.38;;;;;;;9.08;100.00;92492.66;5067220;28;20041;-59
2023/10/19 01:18:32;;;;;;;23.58;13.10;;;;;;;9.14;100.00;92490.91;5058720;28;20053;-58
2023/10/19 01:21:04;;;;;;;22.95;12.52;;;;;;;9.16;100.00;92479.53;5069302;28;20561;-59
2023/10/19 01:23:31;;;;;;;21.20;12.40;;;;;;;9.23;100.00;92482.00;5068820;28;20054;-58
2023/10/19 01:31:16;;;;;;;21.95;13.07;;;;;;;9.13;100.00;92470.19;5068941;28;20207;-60
2023/10/19 01:33:44;;;;;;;23.58;12.48;;;;;;;9.06;100.00;92464.97;5068299;28;22026;-59
2023/10/19 01:36:14;;;;;;;21.57;12.63;;;;;;;8.92;100.00;92465.44;5068568;28;20041;-59
2023/10/19 01:38:41;;;;;;;24.65;13.38;;;;;;;8.78;100.00;92474.88;5068081;28;20070;-59
2023/10/19 01:41:18;;;;;;;25.90;13.18;;;;;;;8.76;100.00;92464.38;5068904;28;20036;-59
2023/10/19 01:43:50;;;;;;;25.75;14.13;;;;;;;8.71;100.00;92466.88;5068053;28;21650;-58
2023/10/19 01:46:33;;;;;;;26.27;13.90;;;;;;;8.75;100.00;92464.81;5068460;28;20050;-57
2023/10/19 01:49:02;;;;;;;22.93;13.30;;;;;;;8.77;100.00;92465.13;5068535;28;20454;-58
2023/10/19 01:51:38;;;;;;;23.45;13.48;;;;;;;8.74;100.00;92460.56;5067963;28;20077;-58
2023/10/19 01:54:07;;;;;;;29.50;15.10;;;;;;;8.76;100.00;92461.63;5069117;28;20047;-59
2023/10/19 01:56:38;;;;;;;24.85;13.65;;;;;;;8.84;100.00;92458.69;5066904;28;20051;-59
2023/10/19 01:59:08;;;;;;;25.27;14.40;;;;;;;8.83;100.00;92448.94;5068655;28;20032;-58
2023/10/19 02:01:37;;;;;;;25.83;13.63;;;;;;;8.89;100.00;92447.16;5067853;28;20099;-59
2023/10/19 02:04:05;;;;;;;25.13;13.80;;;;;;;8.89;100.00;92439.72;5068342;28;20046;-58
2023/10/19 02:11:41;;;;;;;24.92;14.18;;;;;;;8.94;100.00;92438.41;5055764;28;21383;-59
2023/10/19 02:14:31;;;;;;;24.90;14.40;;;;;;;8.93;100.00;92437.66;5047107;28;20051;-59
2023/10/19 02:16:59;;;;;;;25.67;14.35;;;;;;;8.63;100.00;92428.06;5067494;28;20452;-59
2023/10/19 02:19:28;;;;;;;27.35;14.70;;;;;;;8.70;100.00;92443.50;5068189;28;20482;-60
2023/10/19 02:21:58;;;;;;;26.88;13.80;;;;;;;8.92;100.00;92430.66;5068250;28;20561;-59
2023/10/19 02:24:26;;;;;;;26.13;14.32;;;;;;;8.90;100.00;92426.81;5067772;28;20036;-60
2023/10/19 02:26:55;;;;;;;28.23;14.73;;;;;;;8.72;100.00;92430.91;5068318;28;20044;-59
2023/10/19 02:29:23;;;;;;;27.00;14.65;;;;;;;8.55;100.00;92430.28;5067597;28;20089;-58
2023/10/19 02:31:50;;;;;;;28.00;15.60;;;;;;;8.56;100.00;92423.59;5068438;28;20481;-59
2023/10/19 02:34:16;;;;;;;26.55;14.95;;;;;;;8.70;100.00;92427.09;5068052;28;20037;-60
2023/10/19 02:36:45;;;;;;;27.17;14.85;;;;;;;8.89;100.00;92415.09;5068258;28;20438;-58
2023/10/19 02:39:20;;;;;;;25.13;14.40;;;;;;;8.80;100.00;92401.34;5068282;28;20113;-59
2023/10/19 02:41:48;;;;;;;24.80;13.68;;;;;;;8.98;100.00;92406.22;5067120;28;21329;-58
2023/10/19 02:44:19;;;;;;;26.02;14.35;;;;;;;9.07;100.00;92414.50;5067748;28;20563;-56
2023/10/19 02:46:49;;;;;;;24.38;14.50;;;;;;;8.94;100.00;92408.31;5060974;28;20045;-59
2023/10/19 02:49:20;;;;;;;26.08;14.10;;;;;;;8.90;100.00;92410.41;5063348;28;20052;-59
2023/10/19 02:51:48;;;;;;;24.47;13.63;;;;;;;9.00;100.00;92403.81;5069462;28;20056;-59
2023/10/19 02:54:21;;;;;;;27.15;14.57;;;;;;;9.04;100.00;92396.25;5072133;28;20054;-59
2023/10/19 02:56:53;;;;;;;26.00;14.00;;;;;;;9.15;100.00;92395.88;5064670;28;20676;-58
2023/10/19 02:59:22;;;;;;;25.33;13.95;;;;;;;9.19;100.00;92388.31;5067246;28;20068;-58
2023/10/19 03:02:01;;;;;;;24.63;13.25;;;;;;;9.10;100.00;92380.78;5064841;28;20032;-58
2023/10/19 03:04:29;;;;;;;24.77;12.80;;;;;;;9.16;100.00;92379.00;5070654;28;20045;-59
2023/10/19 03:06:57;;;;;;;22.08;12.55;;;;;;;9.19;100.00;92386.34;5070212;28;20370;-60
2023/10/19 03:11:59;;;;;;;29.67;14.45;;;;;;;9.03;100.00;92370.09;5051754;28;20409;-60
2023/10/19 03:14:26;;;;;;;27.90;15.43;;;;;;;8.68;100.00;92372.81;5050964;28;20055;-58
2023/10/19 03:16:56;;;;;;;26.63;15.03;;;;;;;8.64;100.00;92374.16;5051600;28;20041;-59
2023/10/19 03:19:27;;;;;;;26.35;14.43;;;;;;;8.78;100.00;92371.69;5051165;28;20045;-59
2023/10/19 03:21:55;;;;;;;27.75;14.10;;;;;;;8.83;100.00;92372.34;5050143;28;20375;-60
2023/10/19 03:24:40;;;;;;;29.92;15.10;;;;;;;8.65;100.00;92362.75;5051035;28;20052;-59
2023/10/19 03:27:13;;;;;;;27.55;15.13;;;;;;;8.65;100.00;92362.00;5040046;28;20037;-58
2023/10/19 03:29:45;;;;;;;27.97;14.53;;;;;;;8.63;100.00;92369.88;5050587;28;20117;-58
2023/10/19 03:32:14;;;;;;;27.48;14.65;;;;;;;8.71;100.00;92366.47;5051586;28;20130;-58
2023/10/19 03:34:46;;;;;;;29.55;15.07;;;;;;;8.67;100.00;92360.38;5070553;28;20873;-59
2023/10/19 03:37:14;;;;;;;28.25;14.45;;;;;;;8.66;100.00;92358.81;5071476;28;20048;-60
2023/10/19 03:39:42;;;;;;;27.48;14.20;;;;;;;8.68;100.00;92356.41;5070669;28;20353;-59
2023/10/19 03:42:09;;;;;;;25.87;14.07;;;;;;;8.67;100.00;92357.63;5071403;28;20562;-58
2023/10/19 03:44:45;;;;;;;25.80;14.00;;;;;;;8.73;100.00;92355.88;5070701;28;20813;-58
2023/10/19 03:47:13;;;;;;;25.58;13.50;;;;;;;8.77;100.00;92356.50;5068830;28;20059;-59
2023/10/19 03:49:40;;;;;;;26.30;14.60;;;;;;;8.79;100.00;92347.84;5069149;28;20052;-58
2023/10/19 03:54:41;;;;;;;25.73;14.30;;;;;;;8.75;100.00;92342.50;5070645;28;20043;-59
2023/10/19 03:57:11;;;;;;;26.23;13.70;;;;;;;8.79;100.00;92343.16;5070952;28;20055;-59
2023/10/19 03:59:41;;;;;;;24.98;14.18;;;;;;;8.75;100.00;92339.00;5070311;28;20037;-60
2023/10/19 04:02:16;;;;;;;24.33;13.98;;;;;;;8.78;100.00;92349.06;5070369;28;20037;-60
2023/10/19 04:04:43;;;;;;;26.75;14.07;;;;;;;8.82;100.00;92346.22;5066895;28;21615;-58
2023/10/19 04:07:17;;;;;;;27.50;14.03;;;;;;;8.73;100.00;92341.41;5069433;28;20417;-59
2023/10/19 04:12:30;;;;;;;31.48;15.82;;;;;;;8.54;100.00;92337.75;5069936;28;20056;-60
2023/10/19 04:17:42;;;;;;;28.40;15.75;;;;;;;8.69;100.00;92336.06;5069033;28;20556;-61
2023/10/19 04:22:50;;;;;;;34.90;18.58;;;;;;;8.74;100.00;92332.00;5069784;28;20396;-59
2023/10/19 04:25:18;;;;;;;43.15;23.77;;;;;;;8.79;100.00;92334.94;5069723;28;20051;-59
2023/10/19 04:27:47;;;;;;;39.60;21.88;;;;;;;8.74;100.00;92329.28;5070015;28;20113;-58
2023/10/19 04:30:24;;;;;;;38.95;20.70;;;;;;;8.82;100.00;92327.06;5069843;28;20058;-59
2023/10/19 04:32:52;;;;;;;39.63;20.63;;;;;;;8.80;100.00;92330.22;5069096;28;20862;-59
2023/10/19 04:35:22;;;;;;;39.05;21.13;;;;;;;8.71;100.00;92325.44;5069624;28;20559;-58
2023/10/19 04:37:53;;;;;;;39.13;19.73;;;;;;;8.88;100.00;92312.38;5070119;28;20248;-59
2023/10/19 04:40:22;;;;;;;37.53;19.40;;;;;;;8.92;100.00;92314.97;5068459;28;20049;-59
2023/10/19 04:42:54;;;;;;;36.35;20.08;;;;;;;8.94;100.00;92318.78;5069399;28;20062;-58
2023/10/19 04:45:21;;;;;;;32.67;18.23;;;;;;;9.03;100.00;92311.88;5067457;28;20113;-58
2023/10/19 04:47:52;;;;;;;35.80;18.73;;;;;;;8.86;100.00;92311.28;5069410;28;20113;-58
2023/10/19 04:50:19;;;;;;;33.83;17.63;;;;;;;8.80;100.00;92305.63;5068929;28;20459;-59
2023/10/19 04:52:47;;;;;;;32.08;16.38;;;;;;;8.90;100.00;92298.25;5069616;28;20056;-59
2023/10/19 04:55:14;;;;;;;32.20;18.25;;;;;;;8.90;100.00;92303.72;5059212;28;20129;-58
2023/10/19 04:57:41;;;;;;;39.47;22.40;;;;;;;8.77;100.00;92309.22;5069092;28;20052;-59
2023/10/19 05:00:13;;;;;;;45.05;24.48;;;;;;;8.89;100.00;92304.91;5069892;28;20123;-58
2023/10/19 05:02:40;;;;;;;48.95;28.25;;;;;;;9.02;100.00;92319.31;5068626;28;20046;-58
2023/10/19 05:05:08;;;;;;;43.63;25.75;;;;;;;9.08;100.00;92305.84;5069330;28;20085;-62
2023/10/19 05:07:35;;;;;;;34.33;19.52;;;;;;;9.15;100.00;92305.56;5067320;28;20097;-60
2023/10/19 05:10:05;;;;;;;31.67;17.07;;;;;;;9.30;100.00;92319.50;5069536;28;20490;-58
2023/10/19 05:12:32;;;;;;;33.17;16.58;;;;;;;9.42;100.00;92318.69;5068111;28;20044;-59
2023/10/19 05:14:59;;;;;;;36.10;20.55;;;;;;;9.50;100.00;92321.91;5067091;28;20047;-58
2023/10/19 05:17:27;;;;;;;42.92;23.23;;;;;;;9.56;100.00;92318.16;5068552;28;20053;-59
2023/10/19 05:19:54;;;;;;;103.97;38.42;;;;;;;9.58;100.00;92317.72;5069123;28;20040;-59
2023/10/19 05:22:21;;;;;;;92.73;34.10;;;;;;;9.67;100.00;92316.97;5067248;28;20062;-58
2023/10/19 05:24:48;;;;;;;55.55;24.20;;;;;;;9.73;100.00;92320.66;5068809;28;20040;-58
2023/10/19 05:27:15;;;;;;;42.63;19.23;;;;;;;9.70;100.00;92325.06;5069002;28;20052;-59
2023/10/19 05:29:43;;;;;;;26.45;14.82;;;;;;;9.76;100.00;92314.31;5067486;28;20662;-60
2023/10/19 05:32:10;;;;;;;81.72;58.38;;;;;;;9.65;100.00;92311.19;5068897;28;20051;-59
2023/10/19 05:34:37;;;;;;;36.30;22.47;;;;;;;9.54;100.00;92309.63;5068352;28;20044;-58
2023/10/19 05:37:05;;;;;;;27.90;15.27;;;;;;;9.42;100.00;92304.97;5069197;28;20048;-58
2023/10/19 05:39:33;;;;;;;30.45;16.83;;;;;;;9.40;100.00;92301.94;5068147;28;20048;-60
2023/10/19 05:42:00;;;;;;;30.40;18.13;;;;;;;9.47;100.00;92309.88;5069040;28;20059;-60
2023/10/19 05:44:31;;;;;;;32.75;18.20;;;;;;;9.52;100.00;92303.81;5067979;28;20097;-59
2023/10/19 05:46:59;;;;;;;28.47;15.77;;;;;;;9.64;100.00;92312.38;5068569;28;20047;-60
2023/10/19 05:49:28;;;;;;;30.95;17.58;;;;;;;9.64;100.00;92318.66;5067999;28;20534;-59
2023/10/19 05:51:56;;;;;;;34.13;17.63;;;;;;;9.58;100.00;92318.47;5068426;28;20051;-58
2023/10/19 05:54:23;;;;;;;56.50;39.70;;;;;;;9.59;100.00;92309.03;5067899;28;20048;-60
2023/10/19 05:56:54;;;;;;;31.95;18.35;;;;;;;9.47;100.00;92309.88;5068808;28;20077;-59
2023/10/19 05:59:23;;;;;;;32.07;17.37;;;;;;;9.43;100.00;92303.75;5067856;28;20044;-59
2023/10/19 06:01:51;;;;;;;28.38;15.57;;;;;;;9.53;100.00;92302.59;5068472;28;20518;-59
2023/10/19 06:04:18;;;;;;;31.23;15.98;;;;;;;9.50;100.00;92300.78;5065709;28;20094;-59
2023/10/19 06:06:57;;;;;;;28.20;15.07;;;;;;;9.70;100.00;92294.16;5067020;28;20040;-58
2023/10/19 06:09:29;;;;;;;27.60;14.70;;;;;;;9.80;100.00;92298.50;5067513;28;20066;-59
2023/10/19 06:11:56;;;;;;;28.43;16.20;;;;;;;9.87;100.00;92297.44;5053907;28;20455;-59
2023/10/19 06:14:23;;;;;;;28.55;16.33;;;;;;;9.88;100.00;92294.25;5038575;28;20438;-60
2023/10/19 06:16:49;;;;;;;30.58;16.58;;;;;;;9.76;100.00;92293.13;5047025;28;20741;-59
2023/10/19 06:19:17;;;;;;;31.88;16.67;;;;;;;9.88;100.00;92288.00;5058848;28;20037;-58
2023/10/19 06:21:44;;;;;;;31.35;16.05;;;;;;;9.78;100.00;92279.75;5056038;28;20098;-58
2023/10/19 06:24:14;;;;;;;30.13;15.57;;;;;;;9.64;100.00;92279.53;5047456;28;20670;-58
2023/10/19 06:26:43;;;;;;;30.02;15.95;;;;;;;9.69;100.00;92274.22;5054330;28;20666;-60
2023/10/19 06:29:10;;;;;;;30.45;15.52;;;;;;;9.78;100.00;92277.00;5044720;28;20053;-60
2023/10/19 06:31:37;;;;;;;32.80;17.45;;;;;;;9.83;100.00;92269.41;5062458;28;20041;-58
2023/10/19 06:34:04;;;;;;;29.40;16.30;;;;;;;9.94;100.00;92267.00;5065629;28;20036;-61
2023/10/19 06:36:31;;;;;;;32.77;16.30;;;;;;;9.95;100.00;92268.53;5062301;28;20037;-60
2023/10/19 06:38:57;;;;;;;33.67;16.80;;;;;;;9.93;100.00;92268.22;5056341;28;20146;-61
2023/10/19 06:41:24;;;;;;;34.13;17.02;;;;;;;9.92;100.00;92272.97;5046799;28;20049;-59
2023/10/19 06:43:51;;;;;;;35.15;19.13;;;;;;;9.89;100.00;92271.09;5051845;28;20330;-59
2023/10/19 06:46:18;;;;;;;35.58;19.38;;;;;;;9.94;100.00;92267.78;5066804;28;20041;-59
2023/10/19 06:48:45;;;;;;;37.13;19.57;;;;;;;10.03;100.00;92274.50;5066634;28;20046;-59
2023/10/19 06:51:12;;;;;;;32.50;18.25;;;;;;;9.76;100.00;92259.50;5066430;28;20044;-60
2023/10/19 06:53:38;;;;;;;35.58;18.85;;;;;;;9.62;100.00;92260.81;5064401;28;20066;-59
2023/10/19 06:56:06;;;;;;;37.75;18.60;;;;;;;9.71;100.00;92265.56;5067463;28;20109;-58
2023/10/19 06:58:34;;;;;;;34.60;18.27;;;;;;;9.80;100.00;92269.09;5053489;28;20502;-59
2023/10/19 07:01:05;;;;;;;32.77;18.33;;;;;;;9.92;100.00;92269.44;5067103;28;20036;-62
2023/10/19 07:03:32;;;;;;;36.80;19.52;;;;;;;10.00;100.00;92262.47;5054581;28;20040;-58
2023/10/19 07:05:59;;;;;;;33.55;18.67;;;;;;;10.11;100.00;92264.78;5067184;28;20515;-59
2023/10/19 07:08:30;;;;;;;34.90;17.58;;;;;;;10.12;100.00;92267.09;5067026;28;20501;-58
2023/10/19 07:10:56;;;;;;;32.97;17.65;;;;;;;10.05;100.00;92264.63;5067087;28;20181;-60
2023/10/19 07:13:23;;;;;;;33.30;18.27;;;;;;;9.92;100.00;92264.75;5065722;28;20045;-58
2023/10/19 07:15:51;;;;;;;32.50;18.35;;;;;;;9.87;100.00;92270.78;5065436;28;20047;-59
2023/10/19 07:18:18;;;;;;;33.97;18.35;;;;;;;9.83;100.00;92270.19;5066816;28;20233;-58
2023/10/19 07:20:48;;;;;;;32.55;18.42;;;;;;;9.90;100.00;92263.66;5067074;28;20400;-59
2023/10/19 07:23:18;;;;;;;35.50;19.67;;;;;;;10.09;100.00;92259.00;5067265;28;20077;-58
2023/10/19 07:25:54;;;;;;;31.97;17.90;;;;;;;10.25;100.00;92266.19;5049299;28;20854;-59
2023/10/19 07:28:22;;;;;;;33.72;18.55;;;;;;;10.37;100.00;92248.88;5044402;28;20064;-61
2023/10/19 07:30:51;;;;;;;34.13;19.65;;;;;;;10.46;100.00;92250.88;5046820;28;20060;-58
2023/10/19 07:33:19;;;;;;;32.67;19.15;;;;;;;10.34;100.00;92244.28;5046841;28;20418;-58
2023/10/19 07:35:47;;;;;;;35.83;19.25;;;;;;;10.09;100.00;92248.03;5047504;28;20063;-58
2023/10/19 07:38:15;;;;;;;36.40;19.77;;;;;;;10.11;100.00;92240.88;5049542;28;20047;-62
2023/10/19 07:40:43;;;;;;;36.38;19.95;;;;;;;10.26;100.00;92243.03;5070186;28;20635;-59
2023/10/19 07:43:10;;;;;;;36.35;19.73;;;;;;;10.45;100.00;92238.38;5071249;28;20362;-59
2023/10/19 07:45:37;;;;;;;32.95;18.77;;;;;;;10.55;100.00;92251.63;5070163;28;20049;-59
2023/10/19 07:48:10;;;;;;;36.42;19.65;;;;;;;10.65;100.00;92249.66;5070993;28;20055;-59
2023/10/19 07:50:42;;;;;;;33.90;20.53;;;;;;;10.71;100.00;92236.88;5070184;28;20051;-59
2023/10/19 07:53:09;;;;;;;32.78;18.63;;;;;;;10.48;100.00;92237.47;5070751;28;20101;-60
2023/10/19 07:55:38;;;;;;;35.30;20.23;;;;;;;10.41;100.00;92248.75;5069828;28;20048;-58
2023/10/19 07:58:08;;;;;;;35.75;19.88;;;;;;;10.50;100.00;92246.00;5070833;28;20044;-59
2023/10/19 08:00:36;;;;;;;32.55;17.92;;;;;;;10.59;100.00;92243.25;5070543;28;20474;-59
2023/10/19 08:03:04;;;;;;;29.80;17.57;;;;;;;10.76;100.00;92243.72;5070508;28;20046;-59
2023/10/19 08:05:35;;;;;;;34.95;19.00;;;;;;;10.83;100.00;92243.41;5070333;28;20051;-58
2023/10/19 08:08:04;;;;;;;32.30;18.13;;;;;;;10.98;100.00;92235.31;5070437;28;20033;-58
2023/10/19 08:10:31;;;;;;;32.13;18.48;;;;;;;11.00;100.00;92238.38;5070424;28;20045;-59
2023/10/19 08:12:59;;;;;;;32.50;19.30;;;;;;;10.85;100.00;92229.25;5070343;28;20049;-59
2023/10/19 08:15:26;;;;;;;34.17;19.60;;;;;;;10.83;100.00;92235.19;5070068;28;20174;-58
2023/10/19 08:17:54;;;;;;;32.80;18.98;;;;;;;10.86;100.00;92237.00;5057477;28;20036;-59
2023/10/19 08:20:27;;;;;;;40.80;21.55;;;;;;;10.97;100.00;92231.81;5070051;28;20562;-58
2023/10/19 08:22:56;;;;;;;34.22;20.73;;;;;;;11.17;100.00;92236.81;5070658;28;20040;-58
2023/10/19 08:25:27;;;;;;;34.30;19.95;;;;;;;11.26;100.00;92238.03;5069674;28;20121;-60
2023/10/19 08:28:10;;;;;;;30.93;19.37;;;;;;;11.27;100.00;92236.78;5070019;28;20057;-62
2023/10/19 08:30:37;;;;;;;33.03;17.92;;;;;;;11.27;100.00;92240.31;5067607;28;20066;-60
2023/10/19 08:33:06;;;;;;;31.27;17.55;;;;;;;11.27;100.00;92243.06;5070025;28;20049;-58
2023/10/19 08:35:35;;;;;;;34.00;19.67;;;;;;;11.19;100.00;92239.13;5069859;28;20048;-58
2023/10/19 08:38:09;;;;;;;32.28;19.00;;;;;;;10.90;100.00;92236.84;5070073;28;20047;-58
2023/10/19 08:40:38;;;;;;;30.30;16.90;;;;;;;11.00;100.00;92241.88;5068563;28;20052;-59
2023/10/19 08:43:05;;;;;;;29.77;16.60;;;;;;;11.09;100.00;92237.59;5070134;28;20078;-59
2023/10/19 08:45:34;;;;;;;32.28;17.90;;;;;;;11.20;100.00;92233.16;5069203;28;20051;-59
2023/10/19 08:48:02;;;;;;;30.80;17.52;;;;;;;11.13;100.00;92232.72;5069250;28;20098;-59
2023/10/19 08:50:37;;;;;;;33.70;19.15;;;;;;;11.21;100.00;92228.44;5069005;28;20044;-59
2023/10/19 08:53:08;;;;;;;32.53;17.80;;;;;;;11.28;100.00;92221.84;5056965;28;20051;-59
2023/10/19 08:55:35;;;;;;;31.42;18.00;;;;;;;11.39;100.00;92219.38;5068835;28;20049;-59
2023/10/19 08:58:19;;;;;;;34.78;20.80;;;;;;;11.39;100.00;92225.63;5069732;28;20044;-58
2023/10/19 09:00:53;;;;;;;38.15;20.83;;;;;;;11.50;100.00;92224.38;5068528;28;20710;-59
2023/10/19 09:03:24;;;;;;;35.53;19.77;;;;;;;11.63;100.00;92221.44;5069127;28;20058;-58
2023/10/19 09:05:54;;;;;;;32.83;17.17;;;;;;;11.47;100.00;92212.34;5069369;28;20117;-59
2023/10/19 09:08:22;;;;;;;33.42;17.20;;;;;;;11.40;100.00;92198.94;5068628;28;20052;-59
2023/10/19 09:10:53;;;;;;;37.35;21.20;;;;;;;11.50;100.00;92205.91;5069374;28;20055;-59
2023/10/19 09:13:22;;;;;;;32.10;18.88;;;;;;;11.80;100.00;92206.09;5055736;28;20049;-60
2023/10/19 09:15:53;;;;;;;28.50;17.08;;;;;;;11.90;100.00;92204.84;5069044;28;20048;-60
2023/10/19 09:18:23;;;;;;;31.40;17.57;;;;;;;11.90;100.00;92207.59;5069078;28;20093;-59
2023/10/19 09:20:52;;;;;;;29.02;16.92;;;;;;;12.05;100.00;92202.16;5069258;28;20040;-61
2023/10/19 09:23:25;;;;;;;29.83;17.15;;;;;;;12.04;100.00;92208.16;5069010;28;20055;-59
2023/10/19 09:25:52;;;;;;;29.80;16.90;;;;;;;11.89;100.00;92214.34;5069269;28;20036;-59
2023/10/19 09:28:24;;;;;;;28.83;15.68;;;;;;;11.87;100.00;92216.78;5067145;28;20044;-60
2023/10/19 09:30:52;;;;;;;27.13;15.87;;;;;;;11.76;100.00;92219.25;5066980;28;20040;-59
2023/10/19 09:33:21;;;;;;;30.65;17.88;;;;;;;11.77;100.00;92227.03;5068210;28;20101;-60
2023/10/19 09:35:52;;;;;;;29.48;18.70;;;;;;;12.12;100.00;92220.34;5068884;28;20394;-59
2023/10/19 09:38:24;;;;;;;32.65;19.77;;;;;;;12.20;100.00;92218.75;5059660;28;20538;-58
2023/10/19 09:40:59;;;;;;;33.55;20.20;;;;;;;12.20;100.00;92221.50;5068802;28;20397;-59
2023/10/19 09:43:29;;;;;;;32.87;20.07;;;;;;;12.38;100.00;92212.38;5068186;28;20052;-60
2023/10/19 09:46:00;;;;;;;34.83;20.73;;;;;;;12.55;100.00;92207.97;5068753;28;20482;-60
2023/10/19 09:48:28;;;;;;;36.83;21.20;;;;;;;12.45;100.00;92212.00;5068327;28;20044;-60
2023/10/19 09:50:58;;;;;;;32.28;19.63;;;;;;;12.53;100.00;92206.91;5068531;28;20064;-60
2023/10/19 09:53:27;;;;;;;31.60;19.45;;;;;;;12.67;100.00;92194.44;5068179;28;20113;-60
2023/10/19 09:55:57;;;;;;;31.03;19.30;;;;;;;12.79;100.00;92190.66;5068691;28;20041;-59
2023/10/19 09:58:31;;;;;;;32.33;20.02;;;;;;;12.81;100.00;92179.94;5067963;28;20058;-60
2023/10/19 10:00:58;;;;;;;32.63;18.88;;;;;;;12.92;100.00;92182.91;5068305;28;20416;-61
2023/10/19 10:03:53;;;;;;;32.58;18.27;;;;;;;12.97;100.00;92190.50;5067768;28;20052;-59
2023/10/19 10:06:50;;;;;;;33.10;18.67;;;;;;;13.01;100.00;92173.03;5067895;28;20045;-59
2023/10/19 10:09:23;;;;;;;34.63;20.67;;;;;;;12.81;100.00;92174.44;5067340;28;20040;-59
2023/10/19 10:11:52;;;;;;;33.53;19.27;;;;;;;12.49;100.00;92176.06;5068417;28;20093;-59
2023/10/19 10:14:24;;;;;;;32.35;19.02;;;;;;;12.72;100.00;92174.53;5067963;28;20493;-59
2023/10/19 10:17:18;;;;;;;28.17;18.00;;;;;;;12.79;100.00;92177.66;5068596;28;20047;-58
2023/10/19 10:19:47;;;;;;;33.70;19.75;;;;;;;12.92;100.00;92174.66;5047606;28;20553;-59
2023/10/19 10:22:20;;;;;;;35.83;19.67;;;;;;;12.78;100.00;92173.38;5046760;28;20411;-58
2023/10/19 10:24:53;;;;;;;36.00;20.85;;;;;;;13.20;100.00;92166.13;5051784;28;21511;-59
2023/10/19 10:27:19;;;;;;;31.52;19.02;;;;;;;13.78;100.00;92152.75;5045699;28;20057;-59
2023/10/19 10:30:01;;;;;;;33.50;18.63;;;;;;;14.25;100.00;92144.63;5045859;28;20040;-59
2023/10/19 10:32:50;;;;;;;34.35;19.48;;;;;;;14.44;100.00;92136.81;5047858;28;20045;-59
2023/10/19 10:35:35;;;;;;;26.90;16.80;;;;;;;14.59;100.00;92134.75;5047375;28;20053;-59
2023/10/19 10:38:08;;;;;;;26.75;18.02;;;;;;;14.15;100.00;92133.72;5046367;28;20507;-58
2023/10/19 10:40:49;;;;;;;26.50;16.80;;;;;;;14.09;100.00;92132.13;5047501;28;20485;-58
2023/10/19 10:43:18;;;;;;;25.05;13.98;;;;;;;14.71;100.00;92133.66;5047565;28;20055;-58
2023/10/19 10:45:45;;;;;;;19.65;12.20;;;;;;;14.99;100.00;92127.66;5047672;28;20055;-58
2023/10/19 10:48:16;;;;;;;20.67;13.00;;;;;;;15.04;100.00;92131.72;5034875;28;20055;-60
2023/10/19 10:50:45;;;;;;;21.48;13.38;;;;;;;15.68;100.00;92129.72;5046525;28;20822;-59
2023/10/19 10:53:13;;;;;;;19.65;13.30;;;;;;;16.01;100.00;92136.75;5047692;28;20053;-58
2023/10/19 10:55:41;;;;;;;16.02;11.20;;;;;;;16.56;100.00;92121.66;5046586;28;20047;-59
2023/10/19 10:58:08;;;;;;;16.85;10.77;;;;;;;17.68;100.00;92109.25;5047453;28;20051;-59
2023/10/19 11:00:51;;;;;;;15.10;9.50;;;;;;;18.28;100.00;92103.34;5046692;28;20048;-59
2023/10/19 11:03:18;;;;;;;13.32;9.20;;;;;;;17.52;100.00;92100.41;5047074;28;20333;-59
2023/10/19 11:05:45;;;;;;;14.88;8.95;;;;;;;16.59;100.00;92101.28;5047666;28;20053;-59
2023/10/19 11:08:17;;;;;;;15.18;9.02;;;;;;;16.57;100.00;92099.00;5047586;28;20103;-58
2023/10/19 11:10:46;;;;;;;13.65;9.07;;;;;;;16.49;100.00;92094.44;5046556;28;20138;-59
2023/10/19 11:13:16;;;;;;;17.30;11.27;;;;;;;16.46;100.00;92084.34;5049622;28;20041;-59
2023/10/19 11:15:52;;;;;;;19.00;13.02;;;;;;;16.53;100.00;92076.31;5050062;28;20653;-58
2023/10/19 11:18:42;;;;;;;20.88;13.90;;;;;;;16.52;100.00;92072.06;5039288;28;20045;-59
2023/10/19 11:21:11;;;;;;;22.95;14.25;;;;;;;15.89;100.00;92077.81;5050808;28;20052;-59
2023/10/19 11:23:43;;;;;;;20.08;13.82;;;;;;;16.08;100.00;92069.88;5050492;28;20121;-59
2023/10/19 11:26:11;;;;;;;21.77;13.50;;;;;;;17.13;100.00;92062.38;5051004;28;20417;-59
2023/10/19 11:28:42;;;;;;;21.38;12.98;;;;;;;18.79;100.00;92053.13;5049033;28;20495;-59
2023/10/19 11:31:22;;;;;;;17.75;12.55;;;;;;;18.92;100.00;92056.88;5047255;28;20037;-61
2023/10/19 11:33:52;;;;;;;13.18;8.80;;;;;;;18.17;100.00;92054.19;5050213;28;21581;-59
2023/10/19 11:36:22;;;;;;;11.68;7.38;;;;;;;18.16;100.00;92039.53;5049492;28;20106;-59
2023/10/19 11:38:51;;;;;;;8.97;6.23;;;;;;;19.07;100.00;92036.28;5049805;28;20040;-60
2023/10/19 11:41:18;;;;;;;7.53;5.60;;;;;;;19.19;100.00;92031.41;5050803;28;20527;-59
2023/10/19 11:43:46;;;;;;;9.35;6.07;;;;;;;18.28;100.00;92031.91;5051116;28;20045;-61
2023/10/19 11:46:18;;;;;;;8.50;6.07;;;;;;;18.23;100.00;92031.94;5051167;28;20044;-59
2023/10/19 11:48:45;;;;;;;9.18;5.95;;;;;;;18.84;100.00;92028.13;5070310;28;21652;-60
2023/10/19 11:51:13;;;;;;;7.57;4.73;;;;;;;19.11;100.00;92015.28;5055328;28;20433;-59
2023/10/19 11:53:42;;;;;;;6.20;4.38;;;;;;;19.23;100.00;92021.50;5050124;28;20048;-60
2023/10/19 11:56:12;;;;;;;7.25;4.60;;;;;;;19.01;100.00;92016.88;5050974;28;20041;-59
2023/10/19 11:58:41;;;;;;;5.10;3.67;;;;;;;18.67;100.00;92022.66;5050394;28;20045;-59